Time;durP1;ratioP1;P1;durP2;ratioP2;P2;SDS_P1;SDS_P2;PMS_P1;PMS_P2;Temp;Humidity;BMP_temperature;BMP_pressure;BME280_temperature;BME280_humidity;BME280_pressure;Samples;Min_cycle;Max_cycle;Signal;HPM_P1;HPM_P2
2023/10/03 00:00:34;;;;;;;3.53;1.40;;;16.70;99.90;;;;;;4422982;32;20089;-63
2023/10/03 00:03:01;;;;;;;0.77;0.77;;;16.70;99.90;;;;;;4432986;32;20124;-60
2023/10/03 00:05:29;;;;;;;0.60;0.60;;;16.70;99.90;;;;;;4432710;32;20142;-60
2023/10/03 00:07:56;;;;;;;0.80;0.68;;;16.70;99.90;;;;;;4420800;32;20058;-61
2023/10/03 00:10:22;;;;;;;21.85;0.88;;;16.60;99.90;;;;;;4428404;32;20105;-61
2023/10/03 00:12:50;;;;;;;6.32;1.50;;;16.60;99.90;;;;;;4433611;32;20101;-60
2023/10/03 00:15:18;;;;;;;1.87;0.85;;;16.60;99.90;;;;;;4437261;32;20076;-61
2023/10/03 00:17:44;;;;;;;1.10;0.85;;;16.70;99.90;;;;;;4417751;32;20077;-61
2023/10/03 00:20:12;;;;;;;3.83;1.20;;;16.60;99.90;;;;;;4411925;32;20080;-61
2023/10/03 00:22:38;;;;;;;2.28;1.42;;;16.60;99.90;;;;;;4435622;32;20564;-62
2023/10/03 00:25:07;;;;;;;3.65;1.23;;;16.50;99.90;;;;;;4419834;32;20123;-60
2023/10/03 00:27:35;;;;;;;1.20;0.60;;;16.50;99.90;;;;;;4432638;32;20185;-62
2023/10/03 00:30:01;;;;;;;2.10;0.90;;;16.40;99.90;;;;;;4436469;32;20093;-60
2023/10/03 00:32:26;;;;;;;6.12;1.67;;;16.40;99.90;;;;;;4420834;32;20127;-61
2023/10/03 00:34:52;;;;;;;2.62;1.00;;;16.30;99.90;;;;;;4435115;32;20069;-60
2023/10/03 00:37:18;;;;;;;0.35;0.35;;;16.30;99.90;;;;;;4433949;32;20374;-61
2023/10/03 00:39:43;;;;;;;7.03;0.82;;;16.30;99.90;;;;;;4433309;32;20060;-61
2023/10/03 00:42:09;;;;;;;0.88;0.88;;;16.30;99.90;;;;;;4419796;32;20072;-61
2023/10/03 00:44:34;;;;;;;1.10;0.55;;;16.30;99.90;;;;;;4419260;32;20802;-60
2023/10/03 00:47:00;;;;;;;1.62;1.02;;;16.60;99.90;;;;;;4422355;32;20069;-62
2023/10/03 00:49:28;;;;;;;1.30;0.60;;;16.70;99.90;;;;;;4433417;32;20480;-61
2023/10/03 00:52:01;;;;;;;1.50;1.00;;;16.80;99.90;;;;;;4433634;32;20064;-61
2023/10/03 00:54:27;;;;;;;1.23;0.95;;;16.80;99.90;;;;;;4421399;32;20092;-61
2023/10/03 00:56:53;;;;;;;0.60;0.60;;;16.90;99.90;;;;;;4435031;32;20221;-61
2023/10/03 00:59:19;;;;;;;1.35;0.88;;;16.90;99.90;;;;;;4435658;32;20069;-61
2023/10/03 01:04:19;;;;;;;0.80;0.73;;;16.90;99.90;;;;;;4433703;32;20089;-60
2023/10/03 01:06:47;;;;;;;0.95;0.85;;;16.90;99.90;;;;;;4434433;32;20089;-62
2023/10/03 01:09:22;;;;;;;1.50;0.95;;;16.80;99.90;;;;;;4434160;32;20520;-62
2023/10/03 01:11:51;;;;;;;0.62;0.62;;;16.90;99.90;;;;;;4434697;32;20090;-60
2023/10/03 01:14:17;;;;;;;0.93;0.65;;;16.80;99.90;;;;;;4434433;32;20081;-62
2023/10/03 01:16:44;;;;;;;3.92;0.93;;;16.70;99.90;;;;;;4417845;32;20090;-62
2023/10/03 01:19:14;;;;;;;0.50;0.50;;;16.60;99.90;;;;;;4434983;32;20073;-62
2023/10/03 01:21:41;;;;;;;0.55;0.55;;;16.50;99.90;;;;;;4430979;32;20119;-63
2023/10/03 01:24:14;;;;;;;0.40;0.40;;;16.50;99.90;;;;;;4430215;32;20069;-63
2023/10/03 01:26:39;;;;;;;1.67;1.05;;;16.40;99.90;;;;;;4416484;32;20077;-63
2023/10/03 01:29:05;;;;;;;1.23;0.60;;;16.40;99.90;;;;;;4432754;32;20515;-62
2023/10/03 01:31:31;;;;;;;1.40;0.77;;;16.30;99.90;;;;;;4430052;32;20128;-63
2023/10/03 01:33:56;;;;;;;0.50;0.50;;;16.30;99.90;;;;;;4431794;32;20152;-63
2023/10/03 01:36:22;;;;;;;1.40;0.85;;;16.30;99.90;;;;;;4418797;32;20077;-62
2023/10/03 01:38:47;;;;;;;0.68;0.68;;;16.40;99.90;;;;;;4430909;32;20086;-62
2023/10/03 01:41:13;;;;;;;0.77;0.70;;;16.50;99.90;;;;;;4429781;32;20412;-62
2023/10/03 01:43:43;;;;;;;0.50;0.50;;;16.40;99.90;;;;;;4431770;32;20130;-63
2023/10/03 01:46:09;;;;;;;3.50;0.70;;;16.40;99.90;;;;;;4419289;32;20105;-63
2023/10/03 01:48:35;;;;;;;3.95;1.33;;;16.30;99.90;;;;;;4430886;32;20538;-63
2023/10/03 01:51:02;;;;;;;1.05;0.68;;;16.10;99.90;;;;;;4432997;32;20576;-63
2023/10/03 01:53:29;;;;;;;0.60;0.60;;;16.10;99.90;;;;;;4433237;32;20069;-63
2023/10/03 01:55:55;;;;;;;3.15;1.02;;;16.20;99.90;;;;;;4417763;32;20123;-63
2023/10/03 01:58:24;;;;;;;0.95;0.65;;;16.20;99.90;;;;;;4434614;32;20065;-61
2023/10/03 02:00:50;;;;;;;2.35;0.90;;;16.10;99.90;;;;;;4432979;32;20056;-62
2023/10/03 02:03:16;;;;;;;4.12;0.80;;;16.20;99.90;;;;;;4436330;32;20069;-63
2023/10/03 02:05:42;;;;;;;0.98;0.88;;;16.20;99.90;;;;;;4434060;32;20077;-63
2023/10/03 02:08:14;;;;;;;0.68;0.68;;;16.10;99.90;;;;;;4437557;32;20436;-63
2023/10/03 02:10:39;;;;;;;1.48;1.02;;;16.10;99.90;;;;;;4408513;32;20106;-63
2023/10/03 02:13:12;;;;;;;0.85;0.65;;;16.00;99.90;;;;;;4434531;32;20077;-63
2023/10/03 02:15:38;;;;;;;0.85;0.80;;;15.90;99.90;;;;;;4433949;32;20105;-63
2023/10/03 02:18:05;;;;;;;1.00;0.90;;;15.70;99.90;;;;;;4422276;32;20089;-63
2023/10/03 02:20:38;;;;;;;1.05;0.77;;;15.70;99.90;;;;;;4421925;32;20565;-63
2023/10/03 02:23:05;;;;;;;12.60;0.90;;;15.70;99.90;;;;;;4433378;32;20099;-61
2023/10/03 02:25:37;;;;;;;3.92;1.42;;;15.70;99.90;;;;;;4430926;32;20097;-61
2023/10/03 02:28:05;;;;;;;0.85;0.80;;;15.70;99.90;;;;;;4416910;32;20092;-62
2023/10/03 02:30:30;;;;;;;0.88;0.82;;;15.60;99.90;;;;;;4434010;32;20143;-62
2023/10/03 02:32:58;;;;;;;31.60;1.85;;;15.50;99.90;;;;;;4436053;32;20076;-61
2023/10/03 02:35:26;;;;;;;1.45;0.95;;;15.50;99.90;;;;;;4422244;32;20101;-61
2023/10/03 02:37:54;;;;;;;0.50;0.50;;;15.40;99.90;;;;;;4408294;32;20335;-61
2023/10/03 02:40:22;;;;;;;0.98;0.98;;;15.40;99.90;;;;;;4422055;32;20551;-63
2023/10/03 02:42:50;;;;;;;2.12;0.68;;;15.40;99.90;;;;;;4434547;32;20065;-60
2023/10/03 02:45:19;;;;;;;0.90;0.82;;;15.40;99.90;;;;;;4432416;32;20536;-61
2023/10/03 02:47:45;;;;;;;5.82;1.00;;;15.50;99.90;;;;;;4434879;32;20073;-63
2023/10/03 02:50:13;;;;;;;0.80;0.80;;;15.50;99.90;;;;;;4435442;32;20324;-61
2023/10/03 02:52:39;;;;;;;0.40;0.40;;;15.50;99.90;;;;;;4420389;32;20548;-63
2023/10/03 02:55:08;;;;;;;0.60;0.60;;;15.40;99.90;;;;;;4433666;32;20587;-61
2023/10/03 02:57:35;;;;;;;0.75;0.75;;;15.40;99.90;;;;;;4420227;32;20065;-62
2023/10/03 03:00:05;;;;;;;1.15;0.95;;;15.50;99.90;;;;;;4431756;32;20194;-61
2023/10/03 03:02:31;;;;;;;4.80;1.73;;;15.50;99.90;;;;;;4431405;32;20097;-62
2023/10/03 03:04:59;;;;;;;0.57;0.57;;;15.50;99.90;;;;;;4435737;32;20077;-61
2023/10/03 03:07:27;;;;;;;1.52;0.98;;;15.50;99.90;;;;;;4434448;32;20073;-62
2023/10/03 03:09:56;;;;;;;0.65;0.65;;;15.50;99.90;;;;;;4433443;32;20076;-62
2023/10/03 03:12:21;;;;;;;1.60;0.70;;;15.50;99.90;;;;;;4432026;32;20554;-61
2023/10/03 03:14:48;;;;;;;0.47;0.47;;;15.50;99.90;;;;;;4432943;32;20068;-62
2023/10/03 03:17:14;;;;;;;8.90;2.78;;;15.60;99.90;;;;;;4432258;32;20408;-62
2023/10/03 03:19:40;;;;;;;3.12;1.02;;;15.60;99.90;;;;;;4433778;32;20117;-62
2023/10/03 03:22:05;;;;;;;3.97;1.42;;;15.60;99.90;;;;;;4433668;32;20205;-61
2023/10/03 03:24:34;;;;;;;0.82;0.82;;;15.50;99.90;;;;;;4432999;32;20093;-61
2023/10/03 03:27:00;;;;;;;2.78;0.88;;;15.60;99.90;;;;;;4434029;32;20105;-61
2023/10/03 03:29:57;;;;;;;0.90;0.90;;;15.60;99.90;;;;;;4435086;32;20797;-61
2023/10/03 03:32:12;;;;;;;0.73;0.55;;;15.50;99.90;;;;;;4411159;32;20077;-61
2023/10/03 03:34:37;;;;;;;0.88;0.88;;;15.50;99.90;;;;;;4431947;32;20132;-62
2023/10/03 03:37:21;;;;;;;1.40;1.17;;;15.60;99.90;;;;;;4437622;32;20552;-63
2023/10/03 03:39:54;;;;;;;1.75;0.88;;;15.50;99.90;;;;;;4434911;32;20840;-63
2023/10/03 03:42:22;;;;;;;0.88;0.45;;;15.50;99.90;;;;;;4434759;32;20568;-61
2023/10/03 03:44:48;;;;;;;1.12;0.70;;;15.50;99.90;;;;;;4433815;32;20085;-61
2023/10/03 03:47:14;;;;;;;1.48;0.90;;;15.50;99.90;;;;;;4434571;32;20451;-62
2023/10/03 03:49:40;;;;;;;0.70;0.70;;;15.40;99.90;;;;;;4410839;32;20485;-62
2023/10/03 03:52:09;;;;;;;2.08;0.95;;;15.40;99.90;;;;;;4432801;32;20064;-61
2023/10/03 03:54:34;;;;;;;1.65;1.27;;;15.40;99.90;;;;;;4434522;32;20092;-61
2023/10/03 03:57:00;;;;;;;6.03;1.30;;;15.30;99.90;;;;;;4432024;32;20263;-62
2023/10/03 03:59:27;;;;;;;1.25;1.08;;;15.30;99.90;;;;;;4432284;32;20087;-61
2023/10/03 04:01:54;;;;;;;0.80;0.80;;;15.40;99.90;;;;;;4434051;32;20081;-61
2023/10/03 04:04:20;;;;;;;0.50;0.50;;;15.40;99.90;;;;;;4429448;32;20085;-60
2023/10/03 04:06:46;;;;;;;0.75;0.65;;;15.40;99.90;;;;;;4436028;32;20065;-61
2023/10/03 04:09:11;;;;;;;2.05;0.95;;;15.40;99.90;;;;;;4435115;32;20069;-62
2023/10/03 04:11:37;;;;;;;3.97;1.25;;;15.50;99.90;;;;;;4436826;32;20085;-63
2023/10/03 04:14:05;;;;;;;15.55;1.42;;;15.50;99.90;;;;;;4437607;32;20141;-62
2023/10/03 04:16:38;;;;;;;7.53;2.05;;;15.50;99.90;;;;;;4418434;32;20464;-61
2023/10/03 04:19:05;;;;;;;0.70;0.70;;;15.50;99.90;;;;;;4429414;32;20092;-61
2023/10/03 04:21:31;;;;;;;0.60;0.60;;;15.60;99.90;;;;;;4429128;32;20100;-61
2023/10/03 04:23:59;;;;;;;10.25;1.15;;;15.60;99.90;;;;;;4436738;32;20081;-60
2023/10/03 04:26:25;;;;;;;2.05;1.08;;;15.70;99.90;;;;;;4431812;32;20255;-62
2023/10/03 04:28:52;;;;;;;1.30;0.80;;;15.70;99.90;;;;;;4416835;32;20093;-61
2023/10/03 04:31:17;;;;;;;5.55;1.65;;;15.90;99.90;;;;;;4417977;32;20430;-62
2023/10/03 04:33:45;;;;;;;3.50;1.00;;;15.90;99.90;;;;;;4432648;32;20073;-62
2023/10/03 04:36:11;;;;;;;2.35;1.25;;;16.00;99.90;;;;;;4431559;32;20081;-62
2023/10/03 04:38:37;;;;;;;6.45;1.25;;;16.00;99.90;;;;;;4430606;32;20085;-62
2023/10/03 04:41:02;;;;;;;6.65;1.15;;;16.00;99.90;;;;;;4422120;32;20088;-62
2023/10/03 04:43:30;;;;;;;0.70;0.70;;;16.00;99.90;;;;;;4436430;32;20127;-61
2023/10/03 04:45:56;;;;;;;2.78;1.33;;;16.00;99.90;;;;;;4433981;32;20089;-63
2023/10/03 04:48:22;;;;;;;13.05;1.65;;;16.00;99.90;;;;;;4419897;32;20140;-62
2023/10/03 04:50:48;;;;;;;2.42;0.70;;;16.10;99.90;;;;;;4421877;32;20122;-62
2023/10/03 04:53:14;;;;;;;2.72;1.23;;;16.10;99.90;;;;;;4418133;32;20085;-63
2023/10/03 04:55:47;;;;;;;0.50;0.50;;;16.10;99.90;;;;;;4436279;32;20109;-63
2023/10/03 04:58:12;;;;;;;1.45;1.00;;;16.00;99.90;;;;;;4434476;32;20098;-63
2023/10/03 05:00:39;;;;;;;9.55;0.82;;;15.90;99.90;;;;;;4430351;32;20065;-63
2023/10/03 05:03:04;;;;;;;1.10;0.80;;;15.90;99.90;;;;;;4432677;32;20073;-64
2023/10/03 05:05:32;;;;;;;3.87;1.95;;;15.90;99.90;;;;;;4433956;32;20192;-64
2023/10/03 05:07:58;;;;;;;7.20;1.40;;;16.00;99.90;;;;;;4420228;32;20142;-61
2023/10/03 05:10:25;;;;;;;1.45;0.70;;;15.90;99.90;;;;;;4418257;32;20100;-63
2023/10/03 05:12:52;;;;;;;2.60;1.50;;;15.90;99.90;;;;;;4432456;32;20057;-64
2023/10/03 05:15:18;;;;;;;1.55;1.10;;;15.90;99.90;;;;;;4436830;32;20630;-63
2023/10/03 05:17:44;;;;;;;0.55;0.55;;;15.90;99.90;;;;;;4435337;32;20115;-62
2023/10/03 05:20:13;;;;;;;3.60;1.20;;;16.00;99.90;;;;;;4432410;32;20096;-61
2023/10/03 05:22:40;;;;;;;2.30;1.15;;;15.90;99.90;;;;;;4419650;32;20079;-63
2023/10/03 05:25:07;;;;;;;3.15;0.82;;;15.90;99.90;;;;;;4435168;32;20438;-62
2023/10/03 05:27:33;;;;;;;3.40;0.98;;;15.90;99.90;;;;;;4430612;32;20077;-63
2023/10/03 05:29:59;;;;;;;11.70;0.90;;;15.90;99.90;;;;;;4432208;32;20093;-65
2023/10/03 05:32:28;;;;;;;3.17;1.50;;;16.00;99.90;;;;;;4421496;32;20426;-61
2023/10/03 05:34:54;;;;;;;4.18;1.40;;;16.00;99.90;;;;;;4435621;32;20089;-61
2023/10/03 05:37:19;;;;;;;3.83;1.73;;;16.10;99.90;;;;;;4433994;32;20560;-63
2023/10/03 05:39:45;;;;;;;1.23;1.00;;;16.00;99.90;;;;;;4431172;32;20080;-61
2023/10/03 05:42:10;;;;;;;6.93;1.67;;;16.00;99.90;;;;;;4436946;32;20139;-63
2023/10/03 05:44:37;;;;;;;4.82;0.60;;;16.00;99.90;;;;;;4436424;32;20429;-61
2023/10/03 05:47:03;;;;;;;3.75;1.02;;;16.10;99.90;;;;;;4436521;32;20070;-62
2023/10/03 05:49:28;;;;;;;7.50;2.03;;;16.10;99.90;;;;;;4406876;32;20100;-62
2023/10/03 05:51:55;;;;;;;0.80;0.80;;;16.20;99.90;;;;;;4434544;32;20267;-62
2023/10/03 05:54:23;;;;;;;6.18;1.23;;;16.20;99.90;;;;;;4422230;32;20147;-61
2023/10/03 05:56:49;;;;;;;1.50;1.42;;;16.30;99.90;;;;;;4420895;32;20081;-61
2023/10/03 05:59:15;;;;;;;14.35;2.20;;;16.30;99.90;;;;;;4436383;32;20123;-62
2023/10/03 06:01:42;;;;;;;11.57;1.00;;;16.40;99.90;;;;;;4421289;32;20069;-61
2023/10/03 06:04:08;;;;;;;0.70;0.70;;;16.40;99.90;;;;;;4438154;32;20173;-61
2023/10/03 06:06:33;;;;;;;0.80;0.70;;;16.50;99.90;;;;;;4431918;32;20135;-62
2023/10/03 06:08:59;;;;;;;3.65;2.08;;;16.60;99.90;;;;;;4436348;32;20081;-61
2023/10/03 06:11:24;;;;;;;1.30;1.20;;;16.60;99.90;;;;;;4439345;32;20085;-63
2023/10/03 06:13:50;;;;;;;1.48;0.90;;;16.70;99.90;;;;;;4435847;32;20096;-63
2023/10/03 06:16:15;;;;;;;14.57;1.15;;;16.70;99.90;;;;;;4430006;32;20228;-64
2023/10/03 06:18:41;;;;;;;0.82;0.70;;;16.80;99.90;;;;;;4432659;32;20105;-64
2023/10/03 06:21:08;;;;;;;1.92;0.95;;;16.90;99.90;;;;;;4434534;32;20089;-63
2023/10/03 06:23:34;;;;;;;0.80;0.73;;;16.90;99.90;;;;;;4420768;32;20065;-64
2023/10/03 06:26:01;;;;;;;2.17;1.12;;;17.00;99.90;;;;;;4417924;32;20090;-64
2023/10/03 06:28:26;;;;;;;0.70;0.70;;;17.00;99.90;;;;;;4430598;32;20076;-64
2023/10/03 06:30:52;;;;;;;1.20;1.10;;;17.10;99.90;;;;;;4431499;32;20501;-63
2023/10/03 06:33:17;;;;;;;0.95;0.75;;;17.20;99.90;;;;;;4432078;32;20140;-64
2023/10/03 06:35:43;;;;;;;2.85;1.27;;;17.20;99.90;;;;;;4434833;32;20540;-64
2023/10/03 06:38:08;;;;;;;0.95;0.85;;;17.20;99.90;;;;;;4418341;32;20118;-64
2023/10/03 06:40:34;;;;;;;9.98;1.27;;;17.30;99.90;;;;;;4432567;32;20070;-63
2023/10/03 06:42:59;;;;;;;4.47;1.10;;;17.30;99.90;;;;;;4435148;32;20064;-64
2023/10/03 06:45:25;;;;;;;1.02;0.93;;;17.30;99.90;;;;;;4434025;32;20080;-64
2023/10/03 06:47:50;;;;;;;4.28;1.25;;;17.40;99.90;;;;;;4431458;32;20389;-64
2023/10/03 06:50:17;;;;;;;0.57;0.57;;;17.40;99.90;;;;;;4434925;32;20098;-64
2023/10/03 06:52:43;;;;;;;1.30;0.77;;;17.50;99.90;;;;;;4420786;32;20498;-64
2023/10/03 06:55:11;;;;;;;4.25;1.83;;;17.60;99.90;;;;;;4437943;32;20117;-64
2023/10/03 06:57:38;;;;;;;1.27;0.95;;;17.70;99.90;;;;;;4422561;32;21668;-63
2023/10/03 07:00:04;;;;;;;0.73;0.57;;;17.60;99.90;;;;;;4432910;32;20105;-64
2023/10/03 07:02:30;;;;;;;4.53;1.62;;;17.70;99.90;;;;;;4436495;32;20480;-62
2023/10/03 07:04:55;;;;;;;4.03;2.12;;;17.80;99.90;;;;;;4437008;32;20089;-64
2023/10/03 07:07:21;;;;;;;5.82;1.20;;;17.80;99.90;;;;;;4432759;32;20563;-64
2023/10/03 07:09:46;;;;;;;1.95;1.58;;;17.90;99.90;;;;;;4435672;32;20545;-64
2023/10/03 07:12:12;;;;;;;1.23;1.12;;;17.90;99.90;;;;;;4434693;32;20094;-63
2023/10/03 07:14:38;;;;;;;2.87;0.60;;;18.00;99.90;;;;;;4435271;32;20110;-64
2023/10/03 07:17:03;;;;;;;5.05;0.93;;;18.10;99.90;;;;;;4432915;32;20105;-64
2023/10/03 07:19:30;;;;;;;2.83;1.85;;;18.20;99.90;;;;;;4434898;32;20127;-64
2023/10/03 07:21:56;;;;;;;6.78;1.37;;;18.20;99.90;;;;;;4432729;32;20085;-63
2023/10/03 07:24:24;;;;;;;1.45;0.85;;;18.30;99.90;;;;;;4436158;32;20131;-62
2023/10/03 07:26:50;;;;;;;1.90;0.98;;;18.40;99.90;;;;;;4410127;32;20156;-63
2023/10/03 07:29:17;;;;;;;1.25;1.00;;;18.50;99.90;;;;;;4434921;32;21706;-62
2023/10/03 07:31:43;;;;;;;1.55;0.95;;;18.50;99.90;;;;;;4436869;32;20108;-63
2023/10/03 07:34:09;;;;;;;2.45;1.00;;;18.60;99.90;;;;;;4418665;32;20240;-62
2023/10/03 07:36:34;;;;;;;3.12;1.30;;;18.60;99.90;;;;;;4433429;32;20147;-62
2023/10/03 07:38:59;;;;;;;6.22;1.23;;;18.70;99.90;;;;;;4433854;32;20109;-61
2023/10/03 07:41:27;;;;;;;6.70;1.83;;;18.80;99.90;;;;;;4435986;32;20166;-62
2023/10/03 07:43:52;;;;;;;1.45;1.27;;;19.00;99.90;;;;;;4439731;32;20078;-61
2023/10/03 07:46:20;;;;;;;19.83;1.62;;;19.00;99.90;;;;;;4435283;32;20182;-62
2023/10/03 07:48:46;;;;;;;1.45;1.17;;;19.20;99.90;;;;;;4420196;32;20086;-63
2023/10/03 07:51:16;;;;;;;3.80;0.98;;;19.30;99.90;;;;;;4436108;32;20464;-62
2023/10/03 07:53:41;;;;;;;2.65;1.23;;;19.30;99.90;;;;;;4433960;32;20081;-62
2023/10/03 07:56:16;;;;;;;3.53;1.67;;;19.40;99.90;;;;;;4421235;32;20453;-61
2023/10/03 07:58:42;;;;;;;1.50;1.10;;;19.50;99.90;;;;;;4435340;32;20081;-63
2023/10/03 08:01:07;;;;;;;7.95;2.05;;;19.50;99.90;;;;;;4432018;32;20524;-62
2023/10/03 08:03:33;;;;;;;2.95;1.42;;;19.60;99.90;;;;;;4439190;32;20089;-61
2023/10/03 08:05:59;;;;;;;1.80;1.02;;;19.70;99.90;;;;;;4437683;32;20076;-62
2023/10/03 08:08:25;;;;;;;8.45;1.33;;;19.80;99.90;;;;;;4437044;32;20116;-62
2023/10/03 08:10:51;;;;;;;3.72;1.65;;;20.00;99.90;;;;;;4437726;32;20457;-62
2023/10/03 08:13:17;;;;;;;3.50;1.33;;;20.10;99.90;;;;;;4432833;32;20580;-62
2023/10/03 08:15:43;;;;;;;8.63;1.08;;;20.30;99.90;;;;;;4423417;32;20105;-62
2023/10/03 08:18:17;;;;;;;1.70;1.05;;;20.50;99.90;;;;;;4431962;32;20153;-62
2023/10/03 08:20:43;;;;;;;1.37;0.98;;;20.70;99.90;;;;;;4432695;32;20093;-62
2023/10/03 08:23:09;;;;;;;3.08;1.08;;;20.80;99.90;;;;;;4420738;32;20121;-62
2023/10/03 08:25:35;;;;;;;1.23;1.12;;;21.00;99.90;;;;;;4435443;32;20381;-62
2023/10/03 08:28:01;;;;;;;1.98;1.37;;;21.20;99.90;;;;;;4416314;32;20193;-62
2023/10/03 08:30:29;;;;;;;7.00;1.10;;;21.10;99.90;;;;;;4433641;32;20135;-61
2023/10/03 08:32:57;;;;;;;2.12;1.35;;;21.10;99.90;;;;;;4430320;32;20140;-63
2023/10/03 08:35:34;;;;;;;23.15;1.15;;;21.20;99.90;;;;;;4422921;32;20105;-64
2023/10/03 08:38:04;;;;;;;17.37;1.52;;;21.20;99.90;;;;;;4414297;32;20112;-64
2023/10/03 08:40:31;;;;;;;2.60;1.48;;;21.30;99.90;;;;;;4417081;32;20146;-64
2023/10/03 08:42:57;;;;;;;1.27;0.45;;;21.40;99.90;;;;;;4431156;32;20160;-64
2023/10/03 08:45:25;;;;;;;2.17;1.02;;;21.50;99.90;;;;;;4430769;32;20112;-62
2023/10/03 08:47:53;;;;;;;17.08;1.83;;;21.50;99.90;;;;;;4419638;32;20574;-63
2023/10/03 08:50:29;;;;;;;3.35;1.37;;;21.40;99.90;;;;;;4418950;32;20074;-63
2023/10/03 08:52:56;;;;;;;1.87;1.08;;;21.40;99.90;;;;;;4433988;32;20354;-63
2023/10/03 08:55:26;;;;;;;7.82;0.82;;;21.40;99.90;;;;;;4434474;32;20096;-63
2023/10/03 08:57:52;;;;;;;6.70;1.10;;;21.50;99.90;;;;;;4421380;32;20143;-62
2023/10/03 09:00:25;;;;;;;8.35;1.98;;;21.50;99.90;;;;;;4422425;32;20072;-61
2023/10/03 09:02:59;;;;;;;0.47;0.47;;;21.40;99.90;;;;;;4435405;32;20148;-62
2023/10/03 09:05:25;;;;;;;8.85;1.20;;;21.40;99.90;;;;;;4405867;32;20092;-62
2023/10/03 09:07:51;;;;;;;3.15;1.65;;;21.40;99.90;;;;;;4418196;32;20487;-63
2023/10/03 09:10:26;;;;;;;4.15;1.15;;;21.50;99.90;;;;;;4421339;32;20089;-62
2023/10/03 09:12:52;;;;;;;2.72;1.10;;;21.50;99.90;;;;;;4419874;32;21194;-62
2023/10/03 09:15:22;;;;;;;3.50;1.30;;;21.50;99.90;;;;;;4420005;32;20069;-63
2023/10/03 09:17:51;;;;;;;9.18;1.70;;;21.60;99.90;;;;;;4434852;32;20434;-63
2023/10/03 09:20:21;;;;;;;9.43;1.40;;;21.60;99.90;;;;;;4409802;32;20081;-61
2023/10/03 09:22:46;;;;;;;1.70;1.33;;;21.70;99.90;;;;;;4435703;32;20078;-63
2023/10/03 09:25:12;;;;;;;3.95;1.83;;;21.80;99.90;;;;;;4434553;32;21518;-63
2023/10/03 09:27:39;;;;;;;7.22;0.70;;;21.80;99.90;;;;;;4406345;32;20085;-61
2023/10/03 09:30:10;;;;;;;4.18;1.50;;;21.80;99.90;;;;;;4432731;32;20097;-62
2023/10/03 09:32:39;;;;;;;4.00;1.37;;;21.90;99.90;;;;;;4430798;32;20543;-61
2023/10/03 09:35:09;;;;;;;1.37;1.10;;;21.90;99.90;;;;;;4433416;32;20077;-61
2023/10/03 09:37:35;;;;;;;5.28;2.22;;;22.00;99.90;;;;;;4420015;32;20049;-61
2023/10/03 09:40:16;;;;;;;0.75;0.75;;;22.00;99.90;;;;;;4432642;32;20101;-63
2023/10/03 09:42:48;;;;;;;2.97;1.35;;;22.10;99.90;;;;;;4431667;32;20571;-62
2023/10/03 09:45:16;;;;;;;1.55;1.10;;;22.20;99.90;;;;;;4433456;32;20108;-63
2023/10/03 09:47:42;;;;;;;1.77;1.35;;;22.30;99.90;;;;;;4420214;32;20540;-62
2023/10/03 09:50:09;;;;;;;3.53;0.85;;;22.30;99.90;;;;;;4430597;32;20100;-62
2023/10/03 09:52:37;;;;;;;1.42;0.90;;;22.30;99.90;;;;;;4434450;32;20184;-63
2023/10/03 09:55:17;;;;;;;1.25;0.75;;;22.40;99.90;;;;;;4419740;32;20104;-61
2023/10/03 09:57:46;;;;;;;5.20;1.05;;;22.50;99.90;;;;;;4429530;32;20587;-63
2023/10/03 10:00:25;;;;;;;0.93;0.93;;;22.60;99.90;;;;;;4401764;32;20126;-62
2023/10/03 10:02:55;;;;;;;1.67;0.77;;;22.60;99.90;;;;;;4432574;32;20095;-62
2023/10/03 10:05:22;;;;;;;7.18;2.03;;;22.70;99.90;;;;;;4433899;32;20096;-61
2023/10/03 10:08:13;;;;;;;6.72;1.05;;;22.80;99.90;;;;;;4420571;32;20100;-62
2023/10/03 10:10:41;;;;;;;8.70;1.52;;;22.90;99.90;;;;;;4411916;32;20136;-63
2023/10/03 10:13:20;;;;;;;2.00;0.88;;;22.90;99.90;;;;;;4419159;32;20341;-63
2023/10/03 10:16:07;;;;;;;1.15;1.05;;;23.00;99.90;;;;;;4421014;32;20101;-63
2023/10/03 10:18:55;;;;;;;1.50;0.95;;;23.10;99.90;;;;;;4435956;32;20077;-64
2023/10/03 10:21:23;;;;;;;8.15;1.60;;;23.20;99.90;;;;;;4430284;32;20606;-61
2023/10/03 10:24:13;;;;;;;0.77;0.60;;;23.30;99.90;;;;;;4423566;32;20859;-62
2023/10/03 10:26:39;;;;;;;13.23;2.80;;;23.50;99.90;;;;;;4424460;32;20181;-62
2023/10/03 10:29:08;;;;;;;2.05;0.55;;;23.60;99.90;;;;;;4421029;32;20115;-61
2023/10/03 10:31:38;;;;;;;0.77;0.57;;;23.70;99.90;;;;;;4411388;32;20117;-62
2023/10/03 10:34:36;;;;;;;11.40;1.05;;;23.70;99.90;;;;;;4422268;32;20091;-61
2023/10/03 10:37:09;;;;;;;0.70;0.70;;;23.80;99.90;;;;;;4415321;32;20081;-62
2023/10/03 10:40:04;;;;;;;1.27;0.93;;;23.90;99.90;;;;;;4437703;32;20415;-62
2023/10/03 10:42:32;;;;;;;2.97;1.00;;;23.90;99.90;;;;;;4427750;32;20086;-62
2023/10/03 10:45:13;;;;;;;0.45;0.45;;;24.00;99.90;;;;;;4425286;32;20080;-62
2023/10/03 10:47:50;;;;;;;15.82;0.62;;;24.00;99.90;;;;;;4437469;32;20056;-62
2023/10/03 10:50:18;;;;;;;1.65;1.05;;;24.00;99.90;;;;;;4421949;32;20089;-62
2023/10/03 10:53:02;;;;;;;0.45;0.45;;;24.00;99.90;;;;;;4438630;32;20217;-62
2023/10/03 10:55:28;;;;;;;5.82;0.73;;;24.00;99.90;;;;;;4424175;32;20082;-62
2023/10/03 10:58:07;;;;;;;1.25;0.88;;;24.00;99.90;;;;;;4433795;32;20130;-62
2023/10/03 11:00:33;;;;;;;5.22;1.33;;;23.90;99.90;;;;;;4425419;32;20072;-61
2023/10/03 11:03:03;;;;;;;1.02;0.85;;;23.90;99.90;;;;;;4436120;32;20090;-61
2023/10/03 11:05:46;;;;;;;2.22;1.10;;;23.90;99.90;;;;;;4436655;32;20548;-63
2023/10/03 11:08:12;;;;;;;0.52;0.40;;;23.90;99.90;;;;;;4435844;32;20088;-63
2023/10/03 11:10:56;;;;;;;3.28;1.10;;;23.80;99.90;;;;;;4438865;32;20081;-62
2023/10/03 11:13:23;;;;;;;6.50;1.67;;;23.90;99.90;;;;;;4421584;32;20069;-63
2023/10/03 11:15:51;;;;;;;2.55;1.27;;;23.90;99.90;;;;;;4419349;32;20061;-63
2023/10/03 11:18:26;;;;;;;0.60;0.60;;;23.90;99.90;;;;;;4430588;32;20849;-63
2023/10/03 11:20:52;;;;;;;2.12;0.82;;;24.00;99.90;;;;;;4424307;32;20144;-63
2023/10/03 11:23:18;;;;;;;0.60;0.60;;;24.10;99.90;;;;;;4436493;32;20482;-63
2023/10/03 11:26:00;;;;;;;0.62;0.50;;;24.20;99.90;;;;;;4406157;32;20096;-63
2023/10/03 11:28:29;;;;;;;3.25;1.05;;;24.10;99.90;;;;;;4430092;32;20147;-62
2023/10/03 11:31:03;;;;;;;1.35;0.73;;;24.10;99.90;;;;;;4433350;32;20507;-62
2023/10/03 11:33:43;;;;;;;0.60;0.60;;;24.00;99.90;;;;;;4432510;32;20136;-63
2023/10/03 11:36:08;;;;;;;3.30;1.00;;;23.90;99.90;;;;;;4407434;32;20085;-63
2023/10/03 11:38:50;;;;;;;0.85;0.47;;;23.90;99.90;;;;;;4408007;32;20069;-63
2023/10/03 11:41:33;;;;;;;1.35;0.88;;;23.80;99.90;;;;;;4408192;32;20426;-64
2023/10/03 11:43:59;;;;;;;0.40;0.40;;;23.70;99.90;;;;;;4419047;32;20077;-63
2023/10/03 11:46:25;;;;;;;21.27;0.82;;;23.60;99.90;;;;;;4420598;32;20559;-63
2023/10/03 11:48:56;;;;;;;1.00;0.57;;;23.60;99.90;;;;;;4427469;32;105770;-63
2023/10/03 11:51:22;;;;;;;1.33;0.93;;;23.60;99.90;;;;;;4432883;32;20466;-63
2023/10/03 11:53:47;;;;;;;2.37;1.17;;;23.60;99.90;;;;;;4432400;32;20620;-63
2023/10/03 11:56:13;;;;;;;0.93;0.73;;;23.60;99.90;;;;;;4434032;32;20490;-63
2023/10/03 11:58:38;;;;;;;0.43;0.43;;;23.60;99.90;;;;;;4428599;32;20081;-63
2023/10/03 12:01:04;;;;;;;5.57;1.05;;;23.50;99.90;;;;;;4433224;32;20128;-62
2023/10/03 12:03:30;;;;;;;0.62;0.57;;;23.50;99.90;;;;;;4431953;32;20142;-63
2023/10/03 12:05:57;;;;;;;5.93;0.82;;;23.40;99.90;;;;;;4433281;32;20611;-62
2023/10/03 12:08:23;;;;;;;0.95;0.62;;;23.40;99.90;;;;;;4430919;32;20466;-63
2023/10/03 12:10:49;;;;;;;5.97;1.17;;;23.40;99.90;;;;;;4417160;32;20106;-63
2023/10/03 12:13:15;;;;;;;4.47;1.65;;;23.40;99.90;;;;;;4419972;32;20057;-63
2023/10/03 12:15:43;;;;;;;0.73;0.60;;;23.30;99.90;;;;;;4433648;32;20088;-63
2023/10/03 12:18:09;;;;;;;2.05;0.98;;;23.30;99.90;;;;;;4430267;32;20708;-63
2023/10/03 12:20:37;;;;;;;0.47;0.47;;;23.30;99.90;;;;;;4418749;32;20073;-63
2023/10/03 12:23:04;;;;;;;0.90;0.82;;;23.30;99.90;;;;;;4430539;32;20491;-61
2023/10/03 12:25:31;;;;;;;0.57;0.57;;;23.30;99.90;;;;;;4436829;32;20077;-61
2023/10/03 12:27:56;;;;;;;6.28;1.37;;;23.30;99.90;;;;;;4437447;32;20135;-62
2023/10/03 12:30:23;;;;;;;1.02;0.73;;;23.40;99.90;;;;;;4434308;32;20477;-62
2023/10/03 12:32:50;;;;;;;2.35;0.60;;;23.60;99.90;;;;;;4422132;32;20064;-61
2023/10/03 12:35:16;;;;;;;2.25;0.82;;;23.60;99.90;;;;;;4411404;32;20138;-61
2023/10/03 12:37:46;;;;;;;0.95;0.88;;;23.70;99.90;;;;;;4421077;32;20117;-62
2023/10/03 12:40:13;;;;;;;0.95;0.70;;;23.60;99.90;;;;;;4420778;32;20093;-61
2023/10/03 12:42:41;;;;;;;1.42;0.60;;;23.50;99.90;;;;;;4434051;32;20643;-61
2023/10/03 12:45:07;;;;;;;2.15;1.45;;;23.40;99.90;;;;;;4434808;32;20077;-62
2023/10/03 12:47:35;;;;;;;2.28;0.85;;;23.30;99.90;;;;;;4432973;32;20108;-62
2023/10/03 12:50:01;;;;;;;0.35;0.35;;;23.20;99.90;;;;;;4430020;32;20155;-63
2023/10/03 12:52:30;;;;;;;19.17;1.45;;;23.20;99.90;;;;;;4415403;32;20105;-62